sensor_id;sensor_type;location;lat;lon;timestamp;P1;P2;P0
28647;PMS5003;17137;51.494;-0.262;2023-05-10T00:00:20;4;3;
28647;PMS5003;17137;51.494;-0.262;2023-05-10T00:00:51;4;3;
28647;PMS5003;17137;51.494;-0.262;2023-05-10T00:01:22;3;3;
28647;PMS5003;17137;51.494;-0.262;2023-05-10T00:01:53;3;3;
28647;PMS5003;17137;51.494;-0.262;2023-05-10T00:02:24;3;3;
28647;PMS5003;17137;51.494;-0.262;2023-05-10T00:02:55;3;3;
28647;PMS5003;17137;51.494;-0.262;2023-05-10T00:03:25;3;3;
28647;PMS5003;17137;51.494;-0.262;2023-05-10T00:03:58;3;3;
28647;PMS5003;17137;51.494;-0.262;2023-05-10T00:04:29;3;3;
28647;PMS5003;17137;51.494;-0.262;2023-05-10T00:05:00;3;3;
28647;PMS5003;17137;51.494;-0.262;2023-05-10T00:05:32;3;3;
28647;PMS5003;17137;51.494;-0.262;2023-05-10T00:06:03;3;3;
28647;PMS5003;17137;51.494;-0.262;2023-05-10T00:06:33;3;3;
28647;PMS5003;17137;51.494;-0.262;2023-05-10T00:07:03;3;3;
28647;PMS5003;17137;51.494;-0.262;2023-05-10T00:07:35;3;3;
28647;PMS5003;17137;51.494;-0.262;2023-05-10T00:08:07;4;3;
28647;PMS5003;17137;51.494;-0.262;2023-05-10T00:08:38;4;3;
28647;PMS5003;17137;51.494;-0.262;2023-05-10T00:09:09;4;3;
28647;PMS5003;17137;51.494;-0.262;2023-05-10T00:09:40;4;4;
28647;PMS5003;17137;51.494;-0.262;2023-05-10T00:10:13;4;4;
28647;PMS5003;17137;51.494;-0.262;2023-05-10T00:10:43;4;4;
28647;PMS5003;17137;51.494;-0.262;2023-05-10T00:11:14;4;3;
28647;PMS5003;17137;51.494;-0.262;2023-05-10T00:11:46;4;3;
28647;PMS5003;17137;51.494;-0.262;2023-05-10T00:12:17;4;3;
28647;PMS5003;17137;51.494;-0.262;2023-05-10T00:12:48;3;3;
28647;PMS5003;17137;51.494;-0.262;2023-05-10T00:13:18;3;3;
28647;PMS5003;17137;51.494;-0.262;2023-05-10T00:13:49;3;3;
28647;PMS5003;17137;51.494;-0.262;2023-05-10T00:14:20;5;3;
28647;PMS5003;17137;51.494;-0.262;2023-05-10T00:14:50;5;3;
28647;PMS5003;17137;51.494;-0.262;2023-05-10T00:15:21;5;3;
28647;PMS5003;17137;51.494;-0.262;2023-05-10T00:15:52;7;4;
28647;PMS5003;17137;51.494;-0.262;2023-05-10T00:16:24;7;4;
28647;PMS5003;17137;51.494;-0.262;2023-05-10T00:16:54;7;4;
28647;PMS5003;17137;51.494;-0.262;2023-05-10T00:17:25;6;3;
28647;PMS5003;17137;51.494;-0.262;2023-05-10T00:17:57;3;3;
28647;PMS5003;17137;51.494;-0.262;2023-05-10T00:18:28;4;4;
28647;PMS5003;17137;51.494;-0.262;2023-05-10T00:18:59;4;4;
28647;PMS5003;17137;51.494;-0.262;2023-05-10T00:19:32;4;4;
28647;PMS5003;17137;51.494;-0.262;2023-05-10T00:20:03;4;4;
28647;PMS5003;17137;51.494;-0.262;2023-05-10T00:20:34;4;4;
28647;PMS5003;17137;51.494;-0.262;2023-05-10T00:21:05;4;4;
28647;PMS5003;17137;51.494;-0.262;2023-05-10T00:21:37;4;4;
28647;PMS5003;17137;51.494;-0.262;2023-05-10T00:22:07;4;4;
28647;PMS5003;17137;51.494;-0.262;2023-05-10T00:22:37;4;4;
28647;PMS5003;17137;51.494;-0.262;2023-05-10T00:23:15;4;4;
28647;PMS5003;17137;51.494;-0.262;2023-05-10T00:23:47;4;4;
28647;PMS5003;17137;51.494;-0.262;2023-05-10T00:24:17;4;4;
28647;PMS5003;17137;51.494;-0.262;2023-05-10T00:24:49;3;3;
28647;PMS5003;17137;51.494;-0.262;2023-05-10T00:25:19;3;3;
28647;PMS5003;17137;51.494;-0.262;2023-05-10T00:25:50;3;3;
28647;PMS5003;17137;51.494;-0.262;2023-05-10T00:26:21;5;5;
28647;PMS5003;17137;51.494;-0.262;2023-05-10T00:26:51;5;5;
28647;PMS5003;17137;51.494;-0.262;2023-05-10T00:27:22;5;5;
28647;PMS5003;17137;51.494;-0.262;2023-05-10T00:27:52;5;5;
28647;PMS5003;17137;51.494;-0.262;2023-05-10T00:28:23;5;5;
28647;PMS5003;17137;51.494;-0.262;2023-05-10T00:28:54;5;5;
28647;PMS5003;17137;51.494;-0.262;2023-05-10T00:29:24;4;4;
28647;PMS5003;17137;51.494;-0.262;2023-05-10T00:29:54;4;4;
28647;PMS5003;17137;51.494;-0.262;2023-05-10T00:30:26;4;4;
28647;PMS5003;17137;51.494;-0.262;2023-05-10T00:30:57;4;4;
28647;PMS5003;17137;51.494;-0.262;2023-05-10T00:31:29;4;4;
28647;PMS5003;17137;51.494;-0.262;2023-05-10T00:32:00;4;4;
28647;PMS5003;17137;51.494;-0.262;2023-05-10T00:32:31;4;4;
28647;PMS5003;17137;51.494;-0.262;2023-05-10T00:33:01;4;4;
28647;PMS5003;17137;51.494;-0.262;2023-05-10T00:33:33;4;4;
28647;PMS5003;17137;51.494;-0.262;2023-05-10T00:34:04;4;4;
28647;PMS5003;17137;51.494;-0.262;2023-05-10T00:34:35;6;5;
28647;PMS5003;17137;51.494;-0.262;2023-05-10T00:35:06;6;5;
28647;PMS5003;17137;51.494;-0.262;2023-05-10T00:35:38;6;5;
28647;PMS5003;17137;51.494;-0.262;2023-05-10T00:36:10;6;5;
28647;PMS5003;17137;51.494;-0.262;2023-05-10T00:36:42;6;5;
28647;PMS5003;17137;51.494;-0.262;2023-05-10T00:37:13;6;5;
28647;PMS5003;17137;51.494;-0.262;2023-05-10T00:37:45;6;4;
28647;PMS5003;17137;51.494;-0.262;2023-05-10T00:38:15;6;4;
28647;PMS5003;17137;51.494;-0.262;2023-05-10T00:38:46;6;4;
28647;PMS5003;17137;51.494;-0.262;2023-05-10T00:39:17;6;4;
28647;PMS5003;17137;51.494;-0.262;2023-05-10T00:39:49;6;4;
28647;PMS5003;17137;51.494;-0.262;2023-05-10T00:40:19;6;4;
28647;PMS5003;17137;51.494;-0.262;2023-05-10T00:40:50;6;5;
28647;PMS5003;17137;51.494;-0.262;2023-05-10T00:41:21;6;5;
28647;PMS5003;17137;51.494;-0.262;2023-05-10T00:41:51;6;5;
28647;PMS5003;17137;51.494;-0.262;2023-05-10T00:42:22;4;4;
28647;PMS5003;17137;51.494;-0.262;2023-05-10T00:42:52;4;4;
28647;PMS5003;17137;51.494;-0.262;2023-05-10T00:43:23;4;4;
28647;PMS5003;17137;51.494;-0.262;2023-05-10T00:43:53;4;4;
28647;PMS5003;17137;51.494;-0.262;2023-05-10T00:44:23;4;4;
28647;PMS5003;17137;51.494;-0.262;2023-05-10T00:44:53;4;4;
28647;PMS5003;17137;51.494;-0.262;2023-05-10T00:45:24;4;4;
28647;PMS5003;17137;51.494;-0.262;2023-05-10T00:45:56;4;4;
28647;PMS5003;17137;51.494;-0.262;2023-05-10T00:46:27;4;4;
28647;PMS5003;17137;51.494;-0.262;2023-05-10T00:47:02;4;4;
28647;PMS5003;17137;51.494;-0.262;2023-05-10T00:47:33;4;4;
28647;PMS5003;17137;51.494;-0.262;2023-05-10T00:48:04;4;4;
28647;PMS5003;17137;51.494;-0.262;2023-05-10T00:48:35;4;4;
28647;PMS5003;17137;51.494;-0.262;2023-05-10T00:49:06;4;4;
28647;PMS5003;17137;51.494;-0.262;2023-05-10T00:49:37;4;4;
28647;PMS5003;17137;51.494;-0.262;2023-05-10T00:50:09;4;4;
28647;PMS5003;17137;51.494;-0.262;2023-05-10T00:50:44;4;4;
28647;PMS5003;17137;51.494;-0.262;2023-05-10T00:51:14;4;3;
28647;PMS5003;17137;51.494;-0.262;2023-05-10T00:51:45;4;2;
28647;PMS5003;17137;51.494;-0.262;2023-05-10T00:52:16;4;2;
28647;PMS5003;17137;51.494;-0.262;2023-05-10T00:52:47;4;2;
28647;PMS5003;17137;51.494;-0.262;2023-05-10T00:53:18;4;3;
28647;PMS5003;17137;51.494;-0.262;2023-05-10T00:53:50;4;3;
28647;PMS5003;17137;51.494;-0.262;2023-05-10T00:54:22;4;3;
28647;PMS5003;17137;51.494;-0.262;2023-05-10T00:54:52;4;3;
28647;PMS5003;17137;51.494;-0.262;2023-05-10T00:55:23;4;3;
28647;PMS5003;17137;51.494;-0.262;2023-05-10T00:55:54;4;3;
28647;PMS5003;17137;51.494;-0.262;2023-05-10T00:56:25;4;2;
28647;PMS5003;17137;51.494;-0.262;2023-05-10T00:56:55;4;2;
28647;PMS5003;17137;51.494;-0.262;2023-05-10T00:57:26;4;2;
28647;PMS5003;17137;51.494;-0.262;2023-05-10T00:57:56;3;2;
28647;PMS5003;17137;51.494;-0.262;2023-05-10T00:58:27;3;2;
28647;PMS5003;17137;51.494;-0.262;2023-05-10T00:58:59;3;2;
28647;PMS5003;17137;51.494;-0.262;2023-05-10T00:59:30;2;2;
28647;PMS5003;17137;51.494;-0.262;2023-05-10T01:00:02;2;2;
28647;PMS5003;17137;51.494;-0.262;2023-05-10T01:00:33;2;2;
28647;PMS5003;17137;51.494;-0.262;2023-05-10T01:01:05;2;2;
28647;PMS5003;17137;51.494;-0.262;2023-05-10T01:01:36;2;2;
28647;PMS5003;17137;51.494;-0.262;2023-05-10T01:02:07;2;2;
28647;PMS5003;17137;51.494;-0.262;2023-05-10T01:02:38;2;2;
28647;PMS5003;17137;51.494;-0.262;2023-05-10T01:03:13;2;2;
28647;PMS5003;17137;51.494;-0.262;2023-05-10T01:03:45;2;2;
28647;PMS5003;17137;51.494;-0.262;2023-05-10T01:04:18;2;2;
28647;PMS5003;17137;51.494;-0.262;2023-05-10T01:04:48;2;2;
28647;PMS5003;17137;51.494;-0.262;2023-05-10T01:05:19;2;2;
28647;PMS5003;17137;51.494;-0.262;2023-05-10T01:05:50;2;2;
28647;PMS5003;17137;51.494;-0.262;2023-05-10T01:06:20;3;2;
28647;PMS5003;17137;51.494;-0.262;2023-05-10T01:06:51;3;2;
28647;PMS5003;17137;51.494;-0.262;2023-05-10T01:07:22;3;2;
28647;PMS5003;17137;51.494;-0.262;2023-05-10T01:07:53;2;2;
28647;PMS5003;17137;51.494;-0.262;2023-05-10T01:08:27;2;2;
28647;PMS5003;17137;51.494;-0.262;2023-05-10T01:08:58;2;2;
28647;PMS5003;17137;51.494;-0.262;2023-05-10T01:09:34;2;2;
28647;PMS5003;17137;51.494;-0.262;2023-05-10T01:10:07;2;2;
28647;PMS5003;17137;51.494;-0.262;2023-05-10T01:10:39;2;2;
28647;PMS5003;17137;51.494;-0.262;2023-05-10T01:11:10;2;2;
28647;PMS5003;17137;51.494;-0.262;2023-05-10T01:11:42;2;2;
28647;PMS5003;17137;51.494;-0.262;2023-05-10T01:12:12;2;2;
28647;PMS5003;17137;51.494;-0.262;2023-05-10T01:12:44;2;2;
28647;PMS5003;17137;51.494;-0.262;2023-05-10T01:13:18;2;2;
28647;PMS5003;17137;51.494;-0.262;2023-05-10T01:14:06;2;2;
28647;PMS5003;17137;51.494;-0.262;2023-05-10T01:14:37;2;2;
28647;PMS5003;17137;51.494;-0.262;2023-05-10T01:15:08;2;2;
28647;PMS5003;17137;51.494;-0.262;2023-05-10T01:15:40;2;2;
28647;PMS5003;17137;51.494;-0.262;2023-05-10T01:16:11;2;2;
28647;PMS5003;17137;51.494;-0.262;2023-05-10T01:16:42;3;3;
28647;PMS5003;17137;51.494;-0.262;2023-05-10T01:17:16;3;3;
28647;PMS5003;17137;51.494;-0.262;2023-05-10T01:17:47;3;3;
28647;PMS5003;17137;51.494;-0.262;2023-05-10T01:18:18;3;3;
28647;PMS5003;17137;51.494;-0.262;2023-05-10T01:18:51;3;3;
28647;PMS5003;17137;51.494;-0.262;2023-05-10T01:19:22;2;2;
28647;PMS5003;17137;51.494;-0.262;2023-05-10T01:19:54;2;2;
28647;PMS5003;17137;51.494;-0.262;2023-05-10T01:20:24;2;2;
28647;PMS5003;17137;51.494;-0.262;2023-05-10T01:21:04;3;3;
28647;PMS5003;17137;51.494;-0.262;2023-05-10T01:21:48;3;3;
28647;PMS5003;17137;51.494;-0.262;2023-05-10T01:22:30;3;3;
28647;PMS5003;17137;51.494;-0.262;2023-05-10T01:23:23;3;3;
28647;PMS5003;17137;51.494;-0.262;2023-05-10T01:24:09;3;3;
28647;PMS5003;17137;51.494;-0.262;2023-05-10T01:25:11;3;3;
28647;PMS5003;17137;51.494;-0.262;2023-05-10T01:26:04;1;1;
28647;PMS5003;17137;51.494;-0.262;2023-05-10T01:26:52;1;1;
28647;PMS5003;17137;51.494;-0.262;2023-05-10T01:28:00;4;2;
28647;PMS5003;17137;51.494;-0.262;2023-05-10T01:28:47;4;2;
28647;PMS5003;17137;51.494;-0.262;2023-05-10T01:30:03;4;2;
28647;PMS5003;17137;51.494;-0.262;2023-05-10T01:30:52;4;2;
28647;PMS5003;17137;51.494;-0.262;2023-05-10T01:31:49;3;2;
28647;PMS5003;17137;51.494;-0.262;2023-05-10T01:32:33;3;2;
28647;PMS5003;17137;51.494;-0.262;2023-05-10T01:33:11;3;2;
28647;PMS5003;17137;51.494;-0.262;2023-05-10T01:33:50;5;2;
28647;PMS5003;17137;51.494;-0.262;2023-05-10T01:34:27;5;2;
28647;PMS5003;17137;51.494;-0.262;2023-05-10T01:35:06;5;2;
28647;PMS5003;17137;51.494;-0.262;2023-05-10T01:35:41;4;1;
28647;PMS5003;17137;51.494;-0.262;2023-05-10T01:36:19;4;1;
28647;PMS5003;17137;51.494;-0.262;2023-05-10T01:36:58;4;1;
28647;PMS5003;17137;51.494;-0.262;2023-05-10T01:37:41;4;1;
28647;PMS5003;17137;51.494;-0.262;2023-05-10T01:38:49;4;1;
28647;PMS5003;17137;51.494;-0.262;2023-05-10T01:39:23;5;5;
28647;PMS5003;17137;51.494;-0.262;2023-05-10T01:40:04;5;5;
28647;PMS5003;17137;51.494;-0.262;2023-05-10T01:40:46;5;5;
28647;PMS5003;17137;51.494;-0.262;2023-05-10T01:41:24;5;5;
28647;PMS5003;17137;51.494;-0.262;2023-05-10T01:42:03;5;5;
28647;PMS5003;17137;51.494;-0.262;2023-05-10T01:42:39;5;5;
28647;PMS5003;17137;51.494;-0.262;2023-05-10T01:43:17;5;5;
28647;PMS5003;17137;51.494;-0.262;2023-05-10T01:43:53;5;5;
28647;PMS5003;17137;51.494;-0.262;2023-05-10T01:44:37;5;5;
28647;PMS5003;17137;51.494;-0.262;2023-05-10T01:45:14;5;5;
28647;PMS5003;17137;51.494;-0.262;2023-05-10T01:45:52;5;5;
28647;PMS5003;17137;51.494;-0.262;2023-05-10T01:46:31;5;5;
28647;PMS5003;17137;51.494;-0.262;2023-05-10T01:47:05;5;5;
28647;PMS5003;17137;51.494;-0.262;2023-05-10T01:47:40;5;5;
28647;PMS5003;17137;51.494;-0.262;2023-05-10T01:48:12;5;5;
28647;PMS5003;17137;51.494;-0.262;2023-05-10T01:48:47;5;5;
28647;PMS5003;17137;51.494;-0.262;2023-05-10T01:49:23;3;3;
28647;PMS5003;17137;51.494;-0.262;2023-05-10T01:49:56;3;3;
28647;PMS5003;17137;51.494;-0.262;2023-05-10T01:50:31;3;3;
28647;PMS5003;17137;51.494;-0.262;2023-05-10T01:51:03;4;2;
28647;PMS5003;17137;51.494;-0.262;2023-05-10T01:51:36;4;2;
28647;PMS5003;17137;51.494;-0.262;2023-05-10T01:52:12;4;2;
28647;PMS5003;17137;51.494;-0.262;2023-05-10T01:52:47;4;3;
28647;PMS5003;17137;51.494;-0.262;2023-05-10T01:53:23;4;3;
28647;PMS5003;17137;51.494;-0.262;2023-05-10T01:53:57;4;3;
28647;PMS5003;17137;51.494;-0.262;2023-05-10T01:54:30;4;2;
28647;PMS5003;17137;51.494;-0.262;2023-05-10T01:55:05;4;2;
28647;PMS5003;17137;51.494;-0.262;2023-05-10T01:55:39;4;2;
28647;PMS5003;17137;51.494;-0.262;2023-05-10T01:56:14;4;2;
28647;PMS5003;17137;51.494;-0.262;2023-05-10T01:56:46;4;2;
28647;PMS5003;17137;51.494;-0.262;2023-05-10T01:57:20;4;2;
28647;PMS5003;17137;51.494;-0.262;2023-05-10T01:57:56;4;2;
28647;PMS5003;17137;51.494;-0.262;2023-05-10T01:58:33;2;2;
28647;PMS5003;17137;51.494;-0.262;2023-05-10T01:59:06;2;2;
28647;PMS5003;17137;51.494;-0.262;2023-05-10T01:59:43;2;2;
28647;PMS5003;17137;51.494;-0.262;2023-05-10T02:00:15;2;2;
28647;PMS5003;17137;51.494;-0.262;2023-05-10T02:00:48;3;3;
28647;PMS5003;17137;51.494;-0.262;2023-05-10T02:01:20;3;3;
28647;PMS5003;17137;51.494;-0.262;2023-05-10T02:01:52;3;3;
28647;PMS5003;17137;51.494;-0.262;2023-05-10T02:02:23;3;3;
28647;PMS5003;17137;51.494;-0.262;2023-05-10T02:02:55;3;3;
28647;PMS5003;17137;51.494;-0.262;2023-05-10T02:03:26;3;3;
28647;PMS5003;17137;51.494;-0.262;2023-05-10T02:03:57;3;3;
28647;PMS5003;17137;51.494;-0.262;2023-05-10T02:04:29;3;3;
28647;PMS5003;17137;51.494;-0.262;2023-05-10T02:05:01;3;3;
28647;PMS5003;17137;51.494;-0.262;2023-05-10T02:05:35;3;3;
28647;PMS5003;17137;51.494;-0.262;2023-05-10T02:06:07;4;4;
28647;PMS5003;17137;51.494;-0.262;2023-05-10T02:06:38;4;4;
28647;PMS5003;17137;51.494;-0.262;2023-05-10T02:07:09;4;2;
28647;PMS5003;17137;51.494;-0.262;2023-05-10T02:07:41;4;2;
28647;PMS5003;17137;51.494;-0.262;2023-05-10T02:08:13;4;2;
28647;PMS5003;17137;51.494;-0.262;2023-05-10T02:08:45;4;3;
28647;PMS5003;17137;51.494;-0.262;2023-05-10T02:09:16;4;3;
28647;PMS5003;17137;51.494;-0.262;2023-05-10T02:09:48;4;3;
28647;PMS5003;17137;51.494;-0.262;2023-05-10T02:10:19;3;3;
28647;PMS5003;17137;51.494;-0.262;2023-05-10T02:10:51;3;3;
28647;PMS5003;17137;51.494;-0.262;2023-05-10T02:11:24;3;3;
28647;PMS5003;17137;51.494;-0.262;2023-05-10T02:11:56;3;3;
28647;PMS5003;17137;51.494;-0.262;2023-05-10T02:12:30;3;3;
28647;PMS5003;17137;51.494;-0.262;2023-05-10T02:13:05;3;3;
28647;PMS5003;17137;51.494;-0.262;2023-05-10T02:13:36;3;3;
28647;PMS5003;17137;51.494;-0.262;2023-05-10T02:14:08;3;3;
28647;PMS5003;17137;51.494;-0.262;2023-05-10T02:14:41;3;3;
28647;PMS5003;17137;51.494;-0.262;2023-05-10T02:15:14;3;3;
28647;PMS5003;17137;51.494;-0.262;2023-05-10T02:15:48;1;1;
28647;PMS5003;17137;51.494;-0.262;2023-05-10T02:16:20;2;2;
28647;PMS5003;17137;51.494;-0.262;2023-05-10T02:16:55;2;2;
28647;PMS5003;17137;51.494;-0.262;2023-05-10T02:17:28;2;2;
28647;PMS5003;17137;51.494;-0.262;2023-05-10T02:18:00;2;2;
28647;PMS5003;17137;51.494;-0.262;2023-05-10T02:18:34;2;2;
28647;PMS5003;17137;51.494;-0.262;2023-05-10T02:19:06;2;2;
28647;PMS5003;17137;51.494;-0.262;2023-05-10T02:19:40;2;2;
28647;PMS5003;17137;51.494;-0.262;2023-05-10T02:20:12;2;2;
28647;PMS5003;17137;51.494;-0.262;2023-05-10T02:20:46;2;2;
28647;PMS5003;17137;51.494;-0.262;2023-05-10T02:21:16;2;2;
28647;PMS5003;17137;51.494;-0.262;2023-05-10T02:21:48;2;2;
28647;PMS5003;17137;51.494;-0.262;2023-05-10T02:22:20;2;2;
28647;PMS5003;17137;51.494;-0.262;2023-05-10T02:22:53;2;2;
28647;PMS5003;17137;51.494;-0.262;2023-05-10T02:23:26;2;2;
28647;PMS5003;17137;51.494;-0.262;2023-05-10T02:23:59;2;2;
28647;PMS5003;17137;51.494;-0.262;2023-05-10T02:24:32;3;3;
28647;PMS5003;17137;51.494;-0.262;2023-05-10T02:25:04;4;4;
28647;PMS5003;17137;51.494;-0.262;2023-05-10T02:25:38;4;4;
28647;PMS5003;17137;51.494;-0.262;2023-05-10T02:26:09;4;4;
28647;PMS5003;17137;51.494;-0.262;2023-05-10T02:26:41;4;3;
28647;PMS5003;17137;51.494;-0.262;2023-05-10T02:27:18;4;3;
28647;PMS5003;17137;51.494;-0.262;2023-05-10T02:27:50;4;3;
28647;PMS5003;17137;51.494;-0.262;2023-05-10T02:28:23;5;4;
28647;PMS5003;17137;51.494;-0.262;2023-05-10T02:28:55;5;4;
28647;PMS5003;17137;51.494;-0.262;2023-05-10T02:29:27;5;4;
28647;PMS5003;17137;51.494;-0.262;2023-05-10T02:29:59;5;4;
28647;PMS5003;17137;51.494;-0.262;2023-05-10T02:30:30;5;4;
28647;PMS5003;17137;51.494;-0.262;2023-05-10T02:31:01;5;4;
28647;PMS5003;17137;51.494;-0.262;2023-05-10T02:31:32;5;4;
28647;PMS5003;17137;51.494;-0.262;2023-05-10T02:32:04;5;4;
28647;PMS5003;17137;51.494;-0.262;2023-05-10T02:32:35;5;4;
28647;PMS5003;17137;51.494;-0.262;2023-05-10T02:33:06;4;4;
28647;PMS5003;17137;51.494;-0.262;2023-05-10T02:33:38;4;4;
28647;PMS5003;17137;51.494;-0.262;2023-05-10T02:34:10;4;4;
28647;PMS5003;17137;51.494;-0.262;2023-05-10T02:34:42;4;4;
28647;PMS5003;17137;51.494;-0.262;2023-05-10T02:35:19;4;4;
28647;PMS5003;17137;51.494;-0.262;2023-05-10T02:35:51;4;4;
28647;PMS5003;17137;51.494;-0.262;2023-05-10T02:36:22;4;4;
28647;PMS5003;17137;51.494;-0.262;2023-05-10T02:36:54;4;4;
28647;PMS5003;17137;51.494;-0.262;2023-05-10T02:37:24;4;4;
28647;PMS5003;17137;51.494;-0.262;2023-05-10T02:37:56;5;5;
28647;PMS5003;17137;51.494;-0.262;2023-05-10T02:38:28;5;5;
28647;PMS5003;17137;51.494;-0.262;2023-05-10T02:39:00;5;5;
28647;PMS5003;17137;51.494;-0.262;2023-05-10T02:39:32;5;5;
28647;PMS5003;17137;51.494;-0.262;2023-05-10T02:40:04;5;5;
28647;PMS5003;17137;51.494;-0.262;2023-05-10T02:40:36;5;5;
28647;PMS5003;17137;51.494;-0.262;2023-05-10T02:41:08;5;5;
28647;PMS5003;17137;51.494;-0.262;2023-05-10T02:41:39;7;4;
28647;PMS5003;17137;51.494;-0.262;2023-05-10T02:42:11;6;3;
28647;PMS5003;17137;51.494;-0.262;2023-05-10T02:42:47;6;3;
28647;PMS5003;17137;51.494;-0.262;2023-05-10T02:43:19;6;3;
28647;PMS5003;17137;51.494;-0.262;2023-05-10T02:43:52;6;3;
28647;PMS5003;17137;51.494;-0.262;2023-05-10T02:44:28;6;3;
28647;PMS5003;17137;51.494;-0.262;2023-05-10T02:45:00;6;3;
28647;PMS5003;17137;51.494;-0.262;2023-05-10T02:45:34;6;3;
28647;PMS5003;17137;51.494;-0.262;2023-05-10T02:46:06;6;3;
28647;PMS5003;17137;51.494;-0.262;2023-05-10T02:46:36;6;3;
28647;PMS5003;17137;51.494;-0.262;2023-05-10T02:47:07;5;2;
28647;PMS5003;17137;51.494;-0.262;2023-05-10T02:47:37;5;2;
28647;PMS5003;17137;51.494;-0.262;2023-05-10T02:48:08;5;2;
28647;PMS5003;17137;51.494;-0.262;2023-05-10T02:48:38;4;2;
28647;PMS5003;17137;51.494;-0.262;2023-05-10T02:49:08;4;2;
28647;PMS5003;17137;51.494;-0.262;2023-05-10T02:49:40;4;2;
28647;PMS5003;17137;51.494;-0.262;2023-05-10T02:50:10;4;3;
28647;PMS5003;17137;51.494;-0.262;2023-05-10T02:50:42;4;3;
28647;PMS5003;17137;51.494;-0.262;2023-05-10T02:51:19;4;2;
28647;PMS5003;17137;51.494;-0.262;2023-05-10T02:52:00;4;2;
28647;PMS5003;17137;51.494;-0.262;2023-05-10T02:52:38;4;2;
28647;PMS5003;17137;51.494;-0.262;2023-05-10T02:53:11;3;3;
28647;PMS5003;17137;51.494;-0.262;2023-05-10T02:53:48;3;3;
28647;PMS5003;17137;51.494;-0.262;2023-05-10T02:54:21;3;3;
28647;PMS5003;17137;51.494;-0.262;2023-05-10T02:54:58;2;2;
28647;PMS5003;17137;51.494;-0.262;2023-05-10T02:55:33;2;2;
28647;PMS5003;17137;51.494;-0.262;2023-05-10T02:56:10;2;2;
28647;PMS5003;17137;51.494;-0.262;2023-05-10T02:56:46;2;2;
28647;PMS5003;17137;51.494;-0.262;2023-05-10T02:57:22;2;2;
28647;PMS5003;17137;51.494;-0.262;2023-05-10T02:57:58;2;2;
28647;PMS5003;17137;51.494;-0.262;2023-05-10T02:58:31;2;2;
28647;PMS5003;17137;51.494;-0.262;2023-05-10T02:59:01;2;2;
28647;PMS5003;17137;51.494;-0.262;2023-05-10T02:59:32;3;1;
28647;PMS5003;17137;51.494;-0.262;2023-05-10T03:00:02;3;1;
28647;PMS5003;17137;51.494;-0.262;2023-05-10T03:00:34;3;1;
28647;PMS5003;17137;51.494;-0.262;2023-05-10T03:01:06;3;1;
28647;PMS5003;17137;51.494;-0.262;2023-05-10T03:01:37;3;1;
28647;PMS5003;17137;51.494;-0.262;2023-05-10T03:02:08;3;1;
28647;PMS5003;17137;51.494;-0.262;2023-05-10T03:02:39;3;1;
28647;PMS5003;17137;51.494;-0.262;2023-05-10T03:03:11;3;1;
28647;PMS5003;17137;51.494;-0.262;2023-05-10T03:03:41;3;1;
28647;PMS5003;17137;51.494;-0.262;2023-05-10T03:04:11;3;1;
28647;PMS5003;17137;51.494;-0.262;2023-05-10T03:04:42;3;1;
28647;PMS5003;17137;51.494;-0.262;2023-05-10T03:05:13;3;1;
28647;PMS5003;17137;51.494;-0.262;2023-05-10T03:05:44;3;1;
28647;PMS5003;17137;51.494;-0.262;2023-05-10T03:06:14;3;1;
28647;PMS5003;17137;51.494;-0.262;2023-05-10T03:06:45;3;1;
28647;PMS5003;17137;51.494;-0.262;2023-05-10T03:07:16;3;1;
28647;PMS5003;17137;51.494;-0.262;2023-05-10T03:07:48;1;1;
28647;PMS5003;17137;51.494;-0.262;2023-05-10T03:08:23;1;1;
28647;PMS5003;17137;51.494;-0.262;2023-05-10T03:08:54;2;2;
28647;PMS5003;17137;51.494;-0.262;2023-05-10T03:09:24;2;2;
28647;PMS5003;17137;51.494;-0.262;2023-05-10T03:09:55;2;2;
28647;PMS5003;17137;51.494;-0.262;2023-05-10T03:10:26;2;2;
28647;PMS5003;17137;51.494;-0.262;2023-05-10T03:11:07;2;2;
28647;PMS5003;17137;51.494;-0.262;2023-05-10T03:11:48;2;2;
28647;PMS5003;17137;51.494;-0.262;2023-05-10T03:12:27;2;2;
28647;PMS5003;17137;51.494;-0.262;2023-05-10T03:13:12;2;2;
28647;PMS5003;17137;51.494;-0.262;2023-05-10T03:13:54;2;2;
28647;PMS5003;17137;51.494;-0.262;2023-05-10T03:14:38;2;2;
28647;PMS5003;17137;51.494;-0.262;2023-05-10T03:15:20;2;2;
28647;PMS5003;17137;51.494;-0.262;2023-05-10T03:15:59;2;2;
28647;PMS5003;17137;51.494;-0.262;2023-05-10T03:16:37;2;2;
28647;PMS5003;17137;51.494;-0.262;2023-05-10T03:17:14;2;2;
28647;PMS5003;17137;51.494;-0.262;2023-05-10T03:17:53;2;2;
28647;PMS5003;17137;51.494;-0.262;2023-05-10T03:18:28;2;2;
28647;PMS5003;17137;51.494;-0.262;2023-05-10T03:19:06;2;2;
28647;PMS5003;17137;51.494;-0.262;2023-05-10T03:19:44;2;2;
28647;PMS5003;17137;51.494;-0.262;2023-05-10T03:20:20;2;2;
28647;PMS5003;17137;51.494;-0.262;2023-05-10T03:20:55;2;2;
28647;PMS5003;17137;51.494;-0.262;2023-05-10T03:21:31;2;2;
28647;PMS5003;17137;51.494;-0.262;2023-05-10T03:22:03;2;2;
28647;PMS5003;17137;51.494;-0.262;2023-05-10T03:22:40;2;2;
28647;PMS5003;17137;51.494;-0.262;2023-05-10T03:23:21;2;2;
28647;PMS5003;17137;51.494;-0.262;2023-05-10T03:23:57;2;2;
28647;PMS5003;17137;51.494;-0.262;2023-05-10T03:24:32;2;2;
28647;PMS5003;17137;51.494;-0.262;2023-05-10T03:25:05;2;2;
28647;PMS5003;17137;51.494;-0.262;2023-05-10T03:25:37;2;2;
28647;PMS5003;17137;51.494;-0.262;2023-05-10T03:26:09;2;2;
28647;PMS5003;17137;51.494;-0.262;2023-05-10T03:26:45;2;2;
28647;PMS5003;17137;51.494;-0.262;2023-05-10T03:27:16;3;2;
28647;PMS5003;17137;51.494;-0.262;2023-05-10T03:27:48;3;3;
28647;PMS5003;17137;51.494;-0.262;2023-05-10T03:28:20;3;3;
28647;PMS5003;17137;51.494;-0.262;2023-05-10T03:28:51;3;3;
28647;PMS5003;17137;51.494;-0.262;2023-05-10T03:29:23;3;3;
28647;PMS5003;17137;51.494;-0.262;2023-05-10T03:29:57;3;3;
28647;PMS5003;17137;51.494;-0.262;2023-05-10T03:30:28;3;3;
28647;PMS5003;17137;51.494;-0.262;2023-05-10T03:31:00;3;3;
28647;PMS5003;17137;51.494;-0.262;2023-05-10T03:31:31;3;3;
28647;PMS5003;17137;51.494;-0.262;2023-05-10T03:32:02;3;3;
28647;PMS5003;17137;51.494;-0.262;2023-05-10T03:32:33;3;2;
28647;PMS5003;17137;51.494;-0.262;2023-05-10T03:33:06;3;2;
28647;PMS5003;17137;51.494;-0.262;2023-05-10T03:33:45;3;2;
28647;PMS5003;17137;51.494;-0.262;2023-05-10T03:34:16;4;1;
28647;PMS5003;17137;51.494;-0.262;2023-05-10T03:34:46;4;1;
28647;PMS5003;17137;51.494;-0.262;2023-05-10T03:35:16;4;1;
28647;PMS5003;17137;51.494;-0.262;2023-05-10T03:35:47;1;1;
28647;PMS5003;17137;51.494;-0.262;2023-05-10T03:36:18;1;1;
28647;PMS5003;17137;51.494;-0.262;2023-05-10T03:36:49;1;1;
28647;PMS5003;17137;51.494;-0.262;2023-05-10T03:37:19;1;1;
28647;PMS5003;17137;51.494;-0.262;2023-05-10T03:37:49;1;1;
28647;PMS5003;17137;51.494;-0.262;2023-05-10T03:38:20;1;1;
28647;PMS5003;17137;51.494;-0.262;2023-05-10T03:38:50;1;1;
28647;PMS5003;17137;51.494;-0.262;2023-05-10T03:39:20;1;1;
28647;PMS5003;17137;51.494;-0.262;2023-05-10T03:39:51;1;1;
28647;PMS5003;17137;51.494;-0.262;2023-05-10T03:40:21;1;1;
28647;PMS5003;17137;51.494;-0.262;2023-05-10T03:40:52;1;1;
28647;PMS5003;17137;51.494;-0.262;2023-05-10T03:41:22;2;2;
28647;PMS5003;17137;51.494;-0.262;2023-05-10T03:41:52;2;2;
28647;PMS5003;17137;51.494;-0.262;2023-05-10T03:42:23;2;2;
28647;PMS5003;17137;51.494;-0.262;2023-05-10T03:42:54;0;0;
28647;PMS5003;17137;51.494;-0.262;2023-05-10T03:43:24;0;0;
28647;PMS5003;17137;51.494;-0.262;2023-05-10T03:43:54;3;1;
28647;PMS5003;17137;51.494;-0.262;2023-05-10T03:44:24;3;1;
28647;PMS5003;17137;51.494;-0.262;2023-05-10T03:44:55;3;1;
28647;PMS5003;17137;51.494;-0.262;2023-05-10T03:45:25;3;1;